Time;durP1;ratioP1;P1;durP2;ratioP2;P2;SDS_P1;SDS_P2;PMS_P1;PMS_P2;Temp;Humidity;BMP_temperature;BMP_pressure;BME280_temperature;BME280_humidity;BME280_pressure;Samples;Min_cycle;Max_cycle;Signal;HPM_P1;HPM_P2
2023/01/27 00:00:52;;;;;;;6.47;1.60;;;7.60;99.90;;;;;;5012200;28;20026;-73
2023/01/27 00:03:18;;;;;;;4.00;1.50;;;7.60;99.90;;;;;;4994648;28;20026;-73
2023/01/27 00:05:45;;;;;;;6.22;1.42;;;7.60;99.90;;;;;;5011994;28;20022;-73
2023/01/27 00:08:10;;;;;;;3.10;0.90;;;7.60;99.90;;;;;;5011947;28;20498;-73
2023/01/27 00:10:36;;;;;;;5.00;1.23;;;7.60;99.90;;;;;;5012058;28;20101;-73
2023/01/27 00:15:46;;;;;;;5.20;1.48;;;7.50;99.90;;;;;;5012216;28;20029;-73
2023/01/27 00:18:12;;;;;;;4.85;1.40;;;7.50;99.90;;;;;;5011760;28;20026;-74
2023/01/27 00:26:13;;;;;;;3.30;1.10;;;7.40;99.90;;;;;;5011621;28;20049;-73
2023/01/27 00:28:39;;;;;;;7.75;1.52;;;7.40;99.90;;;;;;5011848;28;20022;-73
2023/01/27 00:33:52;;;;;;;2.63;1.20;;;7.30;99.90;;;;;;5011900;28;20080;-74
2023/01/27 00:36:18;;;;;;;6.32;1.40;;;7.20;99.90;;;;;;4993981;28;20482;-76
2023/01/27 00:38:44;;;;;;;7.95;1.30;;;7.10;99.90;;;;;;5011474;28;20050;-73
2023/01/27 00:41:19;;;;;;;3.63;1.23;;;7.10;99.90;;;;;;5011499;28;20030;-72
2023/01/27 00:43:46;;;;;;;4.63;1.38;;;7.20;99.90;;;;;;5011449;28;20112;-73
2023/01/27 00:46:12;;;;;;;7.40;1.30;;;7.20;99.90;;;;;;5011333;28;20030;-73
2023/01/27 00:48:38;;;;;;;7.43;1.52;;;7.30;99.90;;;;;;5011553;28;20022;-74
2023/01/27 00:51:04;;;;;;;5.05;1.63;;;7.30;99.90;;;;;;4993951;28;20099;-73
2023/01/27 00:53:30;;;;;;;3.13;1.10;;;7.40;99.90;;;;;;5011351;28;20475;-74
2023/01/27 00:55:57;;;;;;;3.45;1.05;;;7.40;99.90;;;;;;5011493;28;20056;-74
2023/01/27 00:58:27;;;;;;;2.45;0.98;;;7.40;99.90;;;;;;5011357;28;20083;-74
2023/01/27 01:00:54;;;;;;;4.75;1.30;;;7.50;99.90;;;;;;5011406;28;20495;-74
2023/01/27 01:03:20;;;;;;;4.93;1.27;;;7.40;99.90;;;;;;5011335;28;20421;-73
2023/01/27 01:05:46;;;;;;;4.45;1.05;;;7.40;99.90;;;;;;5011394;28;20549;-75
2023/01/27 01:08:11;;;;;;;2.97;0.90;;;7.30;99.90;;;;;;5011377;28;20101;-74
2023/01/27 01:10:38;;;;;;;4.10;1.30;;;7.30;99.90;;;;;;5011164;28;20018;-73
2023/01/27 01:13:06;;;;;;;5.55;1.23;;;7.20;99.90;;;;;;5010834;28;20034;-74
2023/01/27 01:15:42;;;;;;;2.55;1.02;;;7.30;99.90;;;;;;4994131;28;20118;-74
2023/01/27 01:18:09;;;;;;;1.63;1.00;;;7.20;99.90;;;;;;5011103;28;20518;-73
2023/01/27 01:20:41;;;;;;;1.05;0.80;;;7.30;99.90;;;;;;5011271;28;20063;-73
2023/01/27 01:23:07;;;;;;;2.27;1.20;;;7.30;99.90;;;;;;5011315;28;20018;-74
2023/01/27 01:25:33;;;;;;;1.70;1.00;;;7.30;99.90;;;;;;5011615;28;20034;-75
2023/01/27 01:28:00;;;;;;;5.70;1.02;;;7.30;99.90;;;;;;5014910;28;20044;-73
2023/01/27 01:30:26;;;;;;;5.10;1.30;;;7.40;99.90;;;;;;5015016;28;20030;-73
2023/01/27 01:32:53;;;;;;;5.82;1.17;;;7.50;99.90;;;;;;5014903;28;20026;-73
2023/01/27 01:35:19;;;;;;;3.55;1.45;;;7.50;99.90;;;;;;5014934;28;20021;-73
2023/01/27 01:37:45;;;;;;;3.17;1.17;;;7.50;99.90;;;;;;5014747;28;20507;-73
2023/01/27 01:40:11;;;;;;;4.25;1.13;;;7.50;99.90;;;;;;5014529;28;20074;-73
2023/01/27 01:42:51;;;;;;;1.73;1.00;;;7.60;99.90;;;;;;5014646;28;20680;-73
2023/01/27 01:45:32;;;;;;;2.03;1.23;;;7.60;99.90;;;;;;5014784;28;20026;-73
2023/01/27 01:48:30;;;;;;;3.15;1.23;;;7.60;99.90;;;;;;5014607;28;20029;-73
2023/01/27 01:51:17;;;;;;;1.23;1.00;;;7.50;99.90;;;;;;5014167;28;20052;-73
2023/01/27 01:54:03;;;;;;;1.48;1.38;;;7.50;99.90;;;;;;5014709;28;20025;-74
2023/01/27 01:56:42;;;;;;;2.85;1.70;;;7.60;99.90;;;;;;5014492;28;20022;-73
2023/01/27 01:59:30;;;;;;;3.72;1.55;;;7.50;99.90;;;;;;5014484;28;20037;-74
2023/01/27 02:01:58;;;;;;;5.35;1.45;;;7.50;99.90;;;;;;5013803;28;20042;-72
2023/01/27 02:04:30;;;;;;;5.10;1.50;;;7.50;99.90;;;;;;4996661;28;20030;-72
2023/01/27 02:07:06;;;;;;;3.88;1.70;;;7.60;99.90;;;;;;5014512;28;20026;-73
2023/01/27 02:09:32;;;;;;;7.10;1.80;;;7.50;99.90;;;;;;5014221;28;20034;-72
2023/01/27 02:11:59;;;;;;;6.82;1.80;;;7.50;99.90;;;;;;5014302;28;20403;-73
2023/01/27 02:14:25;;;;;;;2.35;1.48;;;7.60;99.90;;;;;;5014072;28;20080;-72
2023/01/27 02:16:51;;;;;;;4.35;1.80;;;7.60;99.90;;;;;;5014239;28;20075;-73
2023/01/27 02:19:46;;;;;;;5.80;2.05;;;7.50;99.90;;;;;;5014342;28;20044;-74
2023/01/27 02:22:19;;;;;;;2.78;1.55;;;7.50;99.90;;;;;;4985601;28;20120;-74
2023/01/27 02:24:48;;;;;;;2.95;1.52;;;7.50;99.90;;;;;;5015387;28;20030;-73
2023/01/27 02:27:14;;;;;;;2.63;1.27;;;7.50;99.90;;;;;;5015531;28;20598;-72
2023/01/27 02:29:40;;;;;;;3.45;1.50;;;7.50;99.90;;;;;;5015048;28;20494;-73
2023/01/27 02:32:06;;;;;;;1.38;1.15;;;7.60;99.90;;;;;;5014492;28;20033;-74
2023/01/27 02:34:36;;;;;;;2.30;1.20;;;7.60;99.90;;;;;;5014663;28;20030;-73
2023/01/27 02:37:05;;;;;;;2.60;1.30;;;7.60;99.90;;;;;;5013953;28;20025;-73
2023/01/27 02:39:39;;;;;;;2.25;1.20;;;7.60;99.90;;;;;;5013860;28;20038;-73
2023/01/27 02:42:09;;;;;;;1.80;1.50;;;7.50;99.90;;;;;;5014105;28;20017;-73
2023/01/27 02:44:35;;;;;;;2.40;1.30;;;7.50;99.90;;;;;;5014223;28;20018;-72
2023/01/27 02:47:00;;;;;;;2.35;1.48;;;7.50;99.90;;;;;;5013909;28;20121;-73
2023/01/27 02:49:26;;;;;;;3.33;1.38;;;7.50;99.90;;;;;;5014156;28;20084;-73
2023/01/27 02:51:52;;;;;;;2.60;1.42;;;7.50;99.90;;;;;;5016704;28;20344;-73
2023/01/27 02:54:17;;;;;;;3.65;1.70;;;7.40;99.90;;;;;;5016750;28;20037;-72
2023/01/27 02:56:43;;;;;;;1.65;1.45;;;7.40;99.90;;;;;;5018783;28;20029;-74
2023/01/27 02:59:08;;;;;;;2.97;1.50;;;7.40;99.90;;;;;;5018624;28;20698;-73
2023/01/27 03:01:34;;;;;;;3.05;1.73;;;7.40;99.90;;;;;;5018619;28;20026;-73
2023/01/27 03:04:01;;;;;;;4.18;2.00;;;7.40;99.90;;;;;;5013944;28;20503;-72
2023/01/27 03:06:26;;;;;;;3.40;1.63;;;7.40;99.90;;;;;;5013400;28;20104;-74
2023/01/27 03:08:52;;;;;;;5.63;1.70;;;7.40;99.90;;;;;;5013175;28;20053;-72
2023/01/27 03:12:18;;;;;;;3.25;1.58;;;7.30;99.90;;;;;;4995651;28;20037;-74
2023/01/27 03:14:04;;;;;;;2.95;1.75;;;7.30;99.90;;;;;;5012730;28;20490;-74
2023/01/27 03:19:15;;;;;;;3.03;2.00;;;7.30;99.90;;;;;;5013284;28;20541;-74
2023/01/27 03:21:41;;;;;;;3.53;1.77;;;7.30;99.90;;;;;;5012873;28;20657;-73
2023/01/27 03:24:06;;;;;;;2.75;2.10;;;7.30;99.90;;;;;;5012899;28;20030;-72
2023/01/27 03:26:32;;;;;;;2.40;2.03;;;7.30;99.90;;;;;;5012564;28;20053;-74
2023/01/27 03:31:42;;;;;;;3.63;2.47;;;7.30;99.90;;;;;;4998040;28;20029;-73
2023/01/27 03:34:08;;;;;;;7.43;3.38;;;7.30;99.90;;;;;;5012604;28;20029;-73
2023/01/27 03:47:31;;;;;;;5.07;2.83;;;7.20;99.90;;;;;;5012491;28;20533;-72
2023/01/27 03:49:57;;;;;;;5.38;2.95;;;7.10;99.90;;;;;;5011754;28;20091;-73
2023/01/27 03:52:23;;;;;;;6.85;3.42;;;7.10;99.90;;;;;;4994761;28;20054;-74
2023/01/27 03:54:48;;;;;;;5.15;2.67;;;7.00;99.90;;;;;;5012287;28;20025;-73
2023/01/27 03:57:14;;;;;;;5.35;3.10;;;7.00;99.90;;;;;;5012210;28;20050;-72
2023/01/27 03:59:40;;;;;;;7.13;3.00;;;7.00;99.90;;;;;;5012143;28;20034;-73
2023/01/27 04:07:35;;;;;;;5.03;2.60;;;7.00;99.90;;;;;;5012204;28;20040;-72
2023/01/27 04:10:02;;;;;;;4.00;2.30;;;7.10;99.90;;;;;;5012059;28;20025;-73
2023/01/27 04:12:27;;;;;;;6.75;2.63;;;7.10;99.90;;;;;;5011952;28;20076;-73
2023/01/27 04:14:53;;;;;;;5.45;2.80;;;7.10;99.90;;;;;;5011997;28;20026;-72
2023/01/27 04:17:19;;;;;;;6.47;2.50;;;7.10;99.90;;;;;;5011757;28;20049;-73
2023/01/27 04:19:45;;;;;;;5.75;2.85;;;7.20;99.90;;;;;;5011871;28;20042;-74
2023/01/27 04:22:12;;;;;;;3.42;2.45;;;7.20;99.90;;;;;;5011771;28;20026;-73
2023/01/27 04:24:38;;;;;;;5.00;2.88;;;7.20;99.90;;;;;;5011614;28;20462;-73
2023/01/27 04:27:09;;;;;;;9.30;2.90;;;7.20;99.90;;;;;;5011885;28;20033;-73
2023/01/27 04:29:39;;;;;;;5.17;2.50;;;7.20;99.90;;;;;;5011631;28;20104;-74
2023/01/27 04:32:05;;;;;;;4.82;2.88;;;7.20;99.90;;;;;;5011662;28;20014;-72
2023/01/27 04:34:31;;;;;;;4.95;2.90;;;7.20;99.90;;;;;;5011752;28;20045;-73
2023/01/27 04:36:57;;;;;;;4.05;2.75;;;7.20;99.90;;;;;;5011336;28;20022;-72
2023/01/27 04:39:24;;;;;;;4.57;2.80;;;7.20;99.90;;;;;;5012051;28;20045;-74
2023/01/27 04:41:50;;;;;;;5.07;2.65;;;7.20;99.90;;;;;;5012006;28;20439;-72
2023/01/27 04:44:20;;;;;;;6.82;3.78;;;7.20;99.90;;;;;;5011197;28;20376;-73
2023/01/27 04:46:46;;;;;;;4.60;3.28;;;7.10;99.90;;;;;;5011576;28;20026;-72
2023/01/27 04:49:11;;;;;;;5.80;3.13;;;7.10;99.90;;;;;;5011525;28;20096;-72
2023/01/27 04:51:37;;;;;;;6.15;3.35;;;7.10;99.90;;;;;;5011506;28;20545;-73
2023/01/27 04:54:04;;;;;;;4.78;3.45;;;7.00;99.90;;;;;;5011346;28;20132;-71
2023/01/27 04:56:41;;;;;;;4.80;3.28;;;7.10;99.90;;;;;;5011288;28;20109;-72
2023/01/27 04:59:10;;;;;;;7.50;3.47;;;7.10;99.90;;;;;;5011126;28;20422;-71
2023/01/27 05:01:36;;;;;;;7.55;3.25;;;7.10;99.90;;;;;;5011416;28;20478;-72
2023/01/27 05:04:02;;;;;;;5.85;2.90;;;7.10;99.90;;;;;;5011356;28;20113;-73
2023/01/27 05:06:28;;;;;;;5.00;3.17;;;7.10;99.90;;;;;;5011052;28;20018;-73
2023/01/27 05:08:55;;;;;;;4.93;3.08;;;7.10;99.90;;;;;;5011320;28;20026;-73
2023/01/27 05:11:21;;;;;;;6.55;4.40;;;7.10;99.90;;;;;;5011179;28;20018;-73
2023/01/27 05:13:47;;;;;;;7.43;3.22;;;7.10;99.90;;;;;;5011165;28;20113;-73
2023/01/27 05:16:19;;;;;;;5.18;3.30;;;7.10;99.90;;;;;;5011195;28;20040;-71
2023/01/27 05:18:46;;;;;;;7.20;3.75;;;7.10;99.90;;;;;;5011076;28;20430;-73
2023/01/27 05:21:15;;;;;;;6.25;3.28;;;7.10;99.90;;;;;;5011355;28;20034;-72
2023/01/27 05:23:40;;;;;;;7.88;2.97;;;7.10;99.90;;;;;;5011228;28;20022;-73
2023/01/27 05:26:09;;;;;;;5.10;3.30;;;7.00;99.90;;;;;;5010822;28;20030;-73
2023/01/27 05:28:36;;;;;;;5.10;3.00;;;7.00;99.90;;;;;;5011210;28;20076;-73
2023/01/27 05:31:05;;;;;;;5.15;3.17;;;7.10;99.90;;;;;;5011275;28;20037;-72
2023/01/27 05:33:31;;;;;;;5.03;2.78;;;7.10;99.90;;;;;;5011079;28;20022;-72
2023/01/27 05:36:01;;;;;;;5.97;3.10;;;7.10;99.90;;;;;;5011099;28;20032;-71
2023/01/27 05:38:27;;;;;;;8.02;3.17;;;7.10;99.90;;;;;;5010833;28;20033;-72
2023/01/27 05:40:57;;;;;;;5.60;2.70;;;7.10;99.90;;;;;;5011090;28;20038;-72
2023/01/27 05:43:24;;;;;;;5.68;3.25;;;7.10;99.90;;;;;;5010841;28;20018;-72
2023/01/27 05:45:50;;;;;;;4.55;2.75;;;7.10;99.90;;;;;;5010902;28;20030;-72
2023/01/27 05:48:16;;;;;;;5.78;3.08;;;7.00;99.90;;;;;;5010920;28;20052;-72
2023/01/27 05:50:42;;;;;;;8.50;2.75;;;7.00;99.90;;;;;;5011081;28;20026;-73
2023/01/27 05:53:07;;;;;;;5.10;2.83;;;7.00;99.90;;;;;;5011082;28;20022;-72
2023/01/27 05:55:33;;;;;;;5.47;2.63;;;6.90;99.90;;;;;;5011330;28;20022;-73
2023/01/27 05:57:59;;;;;;;8.75;2.55;;;7.00;99.90;;;;;;5011284;28;20030;-72
2023/01/27 06:00:24;;;;;;;9.82;2.85;;;7.00;99.90;;;;;;5011658;28;20045;-73
2023/01/27 06:02:50;;;;;;;6.30;2.25;;;7.00;99.90;;;;;;4997964;28;20029;-72
2023/01/27 06:05:16;;;;;;;4.47;2.05;;;7.00;99.90;;;;;;5016245;28;20069;-73
2023/01/27 06:07:42;;;;;;;6.40;2.38;;;7.00;99.90;;;;;;5012900;28;20026;-72
2023/01/27 06:10:08;;;;;;;4.97;2.38;;;7.00;99.90;;;;;;5010745;28;20026;-72
2023/01/27 06:12:34;;;;;;;5.03;2.28;;;7.00;99.90;;;;;;5012902;28;20030;-73
2023/01/27 06:15:00;;;;;;;6.95;2.15;;;7.00;99.90;;;;;;5014209;28;20109;-72
2023/01/27 06:17:25;;;;;;;8.13;1.92;;;7.00;99.90;;;;;;5014369;28;20022;-73
2023/01/27 06:19:51;;;;;;;3.55;2.50;;;7.00;99.90;;;;;;5010051;28;20080;-73
2023/01/27 06:22:17;;;;;;;4.32;1.63;;;7.00;99.90;;;;;;5013887;28;20026;-73
2023/01/27 06:24:42;;;;;;;4.38;1.70;;;7.00;99.90;;;;;;5014221;28;20030;-73
2023/01/27 06:27:09;;;;;;;4.57;2.00;;;7.10;99.90;;;;;;5012898;28;20582;-73
2023/01/27 06:29:35;;;;;;;5.68;1.95;;;7.00;99.90;;;;;;5008613;28;20029;-72
2023/01/27 06:32:01;;;;;;;4.85;1.73;;;7.00;99.90;;;;;;5011641;28;20026;-73
2023/01/27 06:34:26;;;;;;;2.83;1.70;;;7.00;99.90;;;;;;5013744;28;20912;-73
2023/01/27 06:36:53;;;;;;;5.93;1.98;;;7.10;99.90;;;;;;5014133;28;20434;-74
2023/01/27 06:39:18;;;;;;;3.67;1.65;;;7.00;99.90;;;;;;5013037;28;20060;-73
2023/01/27 06:41:44;;;;;;;6.03;1.83;;;7.00;99.90;;;;;;5014140;28;20383;-73
2023/01/27 06:44:10;;;;;;;4.47;1.85;;;7.00;99.90;;;;;;5016265;28;20093;-74
2023/01/27 06:46:35;;;;;;;9.93;2.25;;;7.00;99.90;;;;;;5017293;28;20033;-73
2023/01/27 06:49:01;;;;;;;7.38;1.77;;;7.00;99.90;;;;;;5012366;28;20022;-73
2023/01/27 06:51:27;;;;;;;10.02;2.33;;;7.00;99.90;;;;;;5014628;28;20073;-73
2023/01/27 06:53:53;;;;;;;5.55;2.03;;;7.00;99.90;;;;;;5014171;28;20034;-74
2023/01/27 06:56:18;;;;;;;4.60;2.65;;;7.00;99.90;;;;;;5013740;28;20113;-74
2023/01/27 06:58:44;;;;;;;7.65;2.20;;;7.00;99.90;;;;;;5013826;28;20052;-73
2023/01/27 07:01:10;;;;;;;4.13;2.20;;;7.00;99.90;;;;;;5012194;28;20048;-73
2023/01/27 07:03:36;;;;;;;6.00;2.40;;;7.00;99.90;;;;;;5012543;28;20502;-73
2023/01/27 07:06:02;;;;;;;5.15;2.58;;;7.10;99.90;;;;;;5012628;28;20038;-74
2023/01/27 07:08:27;;;;;;;5.95;2.45;;;6.90;99.90;;;;;;5012609;28;20022;-74
2023/01/27 07:10:53;;;;;;;4.70;2.03;;;6.70;99.90;;;;;;5010167;28;20060;-73
2023/01/27 07:13:19;;;;;;;5.25;2.20;;;6.50;99.90;;;;;;5011870;28;20471;-73
2023/01/27 07:15:44;;;;;;;7.85;2.83;;;6.40;99.90;;;;;;5012993;28;20026;-74
2023/01/27 07:18:13;;;;;;;9.20;3.10;;;6.10;99.90;;;;;;5010744;28;20059;-75
2023/01/27 07:20:39;;;;;;;5.38;2.58;;;6.10;99.90;;;;;;5011066;28;20044;-74
2023/01/27 07:23:05;;;;;;;7.43;2.45;;;5.90;99.90;;;;;;5011872;28;20104;-74
2023/01/27 07:25:33;;;;;;;4.60;2.08;;;5.80;99.90;;;;;;4995042;28;20113;-74
2023/01/27 07:28:00;;;;;;;6.90;2.05;;;5.70;99.90;;;;;;5011844;28;20026;-72
2023/01/27 07:30:26;;;;;;;11.18;2.20;;;5.70;99.90;;;;;;5010335;28;20437;-75
2023/01/27 07:32:54;;;;;;;5.35;1.98;;;5.60;99.90;;;;;;5011322;28;20028;-73
2023/01/27 07:35:20;;;;;;;5.75;1.77;;;5.50;99.90;;;;;;5008109;28;20116;-73
2023/01/27 07:37:45;;;;;;;10.05;2.00;;;5.50;99.90;;;;;;5012551;28;20036;-72
2023/01/27 07:40:15;;;;;;;8.25;1.88;;;5.40;99.90;;;;;;5011271;28;20585;-73
2023/01/27 07:42:41;;;;;;;10.25;2.03;;;5.40;99.90;;;;;;5011293;28;20478;-74
2023/01/27 07:45:08;;;;;;;11.63;2.10;;;5.40;99.90;;;;;;5011455;28;20461;-74
2023/01/27 07:47:34;;;;;;;10.93;2.40;;;5.40;99.90;;;;;;5011482;28;20034;-73
2023/01/27 07:49:59;;;;;;;8.57;1.90;;;5.40;99.90;;;;;;5012164;28;20034;-74
2023/01/27 07:52:25;;;;;;;4.15;1.85;;;5.40;99.90;;;;;;5012427;28;20030;-74
2023/01/27 07:54:51;;;;;;;5.95;1.67;;;5.50;99.90;;;;;;4992523;28;20038;-74
2023/01/27 07:57:16;;;;;;;8.25;3.38;;;5.40;99.90;;;;;;5010199;28;20040;-74
2023/01/27 07:59:42;;;;;;;5.80;1.67;;;5.50;99.90;;;;;;5010498;28;20034;-74
2023/01/27 08:02:09;;;;;;;7.60;2.08;;;5.60;99.90;;;;;;4981479;28;20048;-74
2023/01/27 08:04:35;;;;;;;8.55;1.58;;;5.70;99.90;;;;;;4993420;28;20487;-75
2023/01/27 08:07:01;;;;;;;5.32;1.50;;;5.80;99.90;;;;;;5012260;28;20111;-74
2023/01/27 08:09:27;;;;;;;9.25;1.85;;;5.90;99.90;;;;;;5012732;28;20042;-75
2023/01/27 08:11:52;;;;;;;10.00;2.05;;;6.00;99.90;;;;;;5011848;28;20033;-73
2023/01/27 08:14:18;;;;;;;5.07;1.58;;;6.00;99.90;;;;;;5011824;28;20029;-75
2023/01/27 08:16:44;;;;;;;2.55;1.55;;;6.10;99.90;;;;;;5012025;28;20505;-73
2023/01/27 08:19:09;;;;;;;5.85;1.65;;;6.20;99.90;;;;;;5011972;28;20125;-73
2023/01/27 08:21:35;;;;;;;10.63;2.72;;;6.40;99.90;;;;;;5011915;28;20541;-73
2023/01/27 08:24:01;;;;;;;9.95;2.20;;;6.50;99.90;;;;;;5009614;28;20518;-74
2023/01/27 08:26:27;;;;;;;5.35;1.88;;;6.60;99.90;;;;;;5011896;28;20034;-74
2023/01/27 08:28:52;;;;;;;6.78;1.90;;;6.60;99.90;;;;;;5012196;28;20076;-74
2023/01/27 08:31:18;;;;;;;14.95;2.28;;;6.50;99.90;;;;;;5011687;28;20022;-74
2023/01/27 08:33:49;;;;;;;10.73;2.70;;;6.50;99.90;;;;;;5011530;28;20026;-73
2023/01/27 08:36:16;;;;;;;6.38;1.70;;;6.30;99.90;;;;;;5011319;28;20021;-74
2023/01/27 08:38:44;;;;;;;8.18;1.90;;;6.40;99.90;;;;;;5011404;28;20495;-74
2023/01/27 08:41:13;;;;;;;12.00;3.25;;;6.40;99.90;;;;;;5011647;28;20041;-74
2023/01/27 08:43:39;;;;;;;10.05;2.28;;;6.40;99.90;;;;;;5011630;28;20022;-74
2023/01/27 08:46:05;;;;;;;4.63;2.10;;;6.40;99.90;;;;;;5011697;28;20034;-74
2023/01/27 08:48:32;;;;;;;11.77;2.03;;;6.30;99.90;;;;;;5011521;28;20105;-74
2023/01/27 08:50:59;;;;;;;10.95;2.40;;;6.40;99.90;;;;;;5011568;28;20026;-74
2023/01/27 08:53:26;;;;;;;7.63;2.50;;;6.40;99.90;;;;;;5011576;28;20041;-74
2023/01/27 08:55:55;;;;;;;6.03;2.22;;;6.50;99.90;;;;;;5011444;28;20034;-73
2023/01/27 08:58:21;;;;;;;6.25;1.88;;;6.50;99.90;;;;;;5011077;28;20109;-73
2023/01/27 09:00:47;;;;;;;7.15;1.77;;;6.50;99.90;;;;;;5011520;28;20107;-74
2023/01/27 09:03:13;;;;;;;18.33;2.00;;;6.50;99.90;;;;;;5011448;28;20053;-74
2023/01/27 09:05:40;;;;;;;5.05;1.45;;;6.60;99.90;;;;;;5013444;28;20054;-74
2023/01/27 09:08:06;;;;;;;9.07;1.70;;;6.60;99.90;;;;;;4995291;28;20383;-74
2023/01/27 09:10:35;;;;;;;7.03;1.88;;;6.70;99.90;;;;;;5014676;28;20022;-73
2023/01/27 09:13:01;;;;;;;5.82;2.03;;;6.70;99.90;;;;;;5015992;28;20084;-74
2023/01/27 09:15:26;;;;;;;8.85;2.00;;;6.80;99.90;;;;;;5015108;28;20426;-74
2023/01/27 09:17:52;;;;;;;5.88;1.55;;;6.80;99.90;;;;;;5011400;28;20026;-74
2023/01/27 09:20:18;;;;;;;7.90;2.00;;;6.90;99.90;;;;;;5011147;28;20121;-74
2023/01/27 09:22:43;;;;;;;6.88;1.83;;;6.90;99.90;;;;;;5009540;28;20471;-74
2023/01/27 09:25:14;;;;;;;9.15;2.42;;;6.90;99.90;;;;;;5009787;28;20072;-73
2023/01/27 09:27:39;;;;;;;5.43;2.10;;;7.00;99.90;;;;;;5009952;28;20419;-74
2023/01/27 09:30:06;;;;;;;4.75;2.13;;;7.00;99.90;;;;;;5011172;28;20057;-74
2023/01/27 09:32:32;;;;;;;6.45;1.70;;;7.10;99.90;;;;;;5010861;28;20425;-73
2023/01/27 09:34:57;;;;;;;7.60;1.83;;;7.10;99.90;;;;;;5009101;28;20022;-74
2023/01/27 09:37:23;;;;;;;4.72;1.38;;;7.10;99.90;;;;;;5009782;28;20448;-74
2023/01/27 09:39:53;;;;;;;13.05;1.67;;;7.10;99.90;;;;;;5010657;28;20467;-73
2023/01/27 09:42:35;;;;;;;9.60;1.83;;;7.30;99.90;;;;;;5009814;28;20529;-73
2023/01/27 09:45:19;;;;;;;7.60;1.50;;;7.30;99.90;;;;;;5010946;28;20021;-74
2023/01/27 09:48:09;;;;;;;6.65;1.48;;;7.30;99.90;;;;;;5012159;28;20029;-75
2023/01/27 09:50:51;;;;;;;11.35;1.80;;;7.40;99.90;;;;;;5020705;28;20503;-74
2023/01/27 09:53:53;;;;;;;11.50;2.17;;;7.40;99.90;;;;;;5032104;28;20393;-73
2023/01/27 09:56:38;;;;;;;8.98;1.45;;;7.40;99.90;;;;;;5014843;28;20390;-73
2023/01/27 09:59:12;;;;;;;4.75;1.80;;;7.60;99.90;;;;;;4996849;28;20429;-74
2023/01/27 10:02:12;;;;;;;6.75;1.70;;;7.60;99.90;;;;;;5014566;28;20026;-74
2023/01/27 10:05:12;;;;;;;6.03;2.08;;;7.60;99.90;;;;;;5014786;28;20030;-73
2023/01/27 10:07:57;;;;;;;7.93;1.70;;;7.70;99.90;;;;;;5000878;28;20026;-74
2023/01/27 10:10:56;;;;;;;11.88;1.98;;;7.70;99.90;;;;;;5014296;28;20018;-75
2023/01/27 10:13:27;;;;;;;12.50;1.90;;;7.90;99.90;;;;;;5013520;28;20030;-74
2023/01/27 10:15:55;;;;;;;8.43;1.45;;;8.00;99.90;;;;;;5014180;28;20144;-74
2023/01/27 10:18:24;;;;;;;4.43;1.20;;;8.10;99.90;;;;;;5014425;28;20041;-74
2023/01/27 10:20:50;;;;;;;8.95;1.85;;;8.20;99.90;;;;;;5013837;28;20033;-74
2023/01/27 10:23:48;;;;;;;8.40;1.70;;;8.40;99.90;;;;;;5011664;28;20022;-75
2023/01/27 10:26:41;;;;;;;4.78;1.30;;;8.60;99.90;;;;;;4964237;28;20049;-74
2023/01/27 10:29:16;;;;;;;11.30;1.77;;;8.70;99.90;;;;;;4996274;28;20390;-74
2023/01/27 10:31:51;;;;;;;13.93;2.00;;;8.70;99.90;;;;;;5014016;28;20026;-75
2023/01/27 10:34:31;;;;;;;6.82;1.38;;;8.70;99.90;;;;;;5013924;28;20538;-74
2023/01/27 10:37:27;;;;;;;6.63;1.40;;;8.70;99.90;;;;;;5013816;28;20180;-74
2023/01/27 10:39:57;;;;;;;6.68;1.75;;;8.70;99.90;;;;;;5013550;28;20049;-73
2023/01/27 10:42:35;;;;;;;10.35;1.63;;;8.70;99.90;;;;;;4995080;28;20414;-74
2023/01/27 10:45:27;;;;;;;8.35;2.05;;;8.80;99.90;;;;;;5013989;28;20032;-74
2023/01/27 10:47:53;;;;;;;9.40;1.95;;;8.80;99.90;;;;;;5011370;28;20032;-75
2023/01/27 10:50:33;;;;;;;10.25;1.95;;;8.90;99.90;;;;;;5012539;28;20026;-75
2023/01/27 10:53:04;;;;;;;13.40;2.55;;;9.00;99.90;;;;;;5012740;28;20025;-74
2023/01/27 10:55:45;;;;;;;7.18;1.30;;;9.10;99.90;;;;;;5014093;28;20034;-74
2023/01/27 10:58:19;;;;;;;6.57;1.77;;;9.30;99.90;;;;;;5013639;28;20560;-74
2023/01/27 11:00:49;;;;;;;8.60;1.77;;;9.50;99.90;;;;;;4983272;28;20125;-74
2023/01/27 11:04:04;;;;;;;7.07;1.40;;;9.60;99.90;;;;;;5012154;28;20022;-74
2023/01/27 11:06:36;;;;;;;7.60;1.30;;;9.70;99.90;;;;;;4980839;28;20034;-74
2023/01/27 11:09:14;;;;;;;11.73;1.38;;;10.10;99.90;;;;;;5012483;28;20104;-74
2023/01/27 11:11:43;;;;;;;7.47;1.38;;;10.30;99.90;;;;;;5013565;28;20483;-73
2023/01/27 11:14:24;;;;;;;13.35;1.83;;;10.50;99.90;;;;;;4995308;28;20116;-75
2023/01/27 11:17:14;;;;;;;8.18;1.35;;;10.70;99.90;;;;;;5024837;28;20025;-75
2023/01/27 11:20:05;;;;;;;6.65;1.17;;;10.70;99.90;;;;;;5006505;28;20190;-75
2023/01/27 11:22:49;;;;;;;13.25;1.50;;;10.70;99.90;;;;;;4993411;28;20026;-73
2023/01/27 11:25:24;;;;;;;6.55;1.40;;;10.80;99.90;;;;;;4993920;28;20038;-73
2023/01/27 11:28:09;;;;;;;6.65;1.48;;;10.90;99.90;;;;;;4993377;28;20527;-73
2023/01/27 11:30:48;;;;;;;5.68;1.77;;;11.00;99.90;;;;;;4993007;28;20030;-76
2023/01/27 11:33:23;;;;;;;11.75;1.42;;;10.90;99.90;;;;;;5004205;28;20069;-75
2023/01/27 11:35:50;;;;;;;7.63;1.70;;;11.00;99.90;;;;;;5011057;28;20021;-74
2023/01/27 11:38:21;;;;;;;5.55;1.55;;;11.10;99.90;;;;;;5012110;28;20026;-73
2023/01/27 11:40:50;;;;;;;6.25;1.58;;;11.10;99.90;;;;;;5012687;28;20049;-75
2023/01/27 11:43:20;;;;;;;5.97;1.17;;;11.10;99.90;;;;;;5011531;28;20112;-76
2023/01/27 11:45:47;;;;;;;5.45;1.50;;;10.90;99.90;;;;;;5012560;28;20446;-74
2023/01/27 11:48:16;;;;;;;9.93;1.70;;;11.00;99.90;;;;;;5011493;28;20364;-73
2023/01/27 11:50:42;;;;;;;8.10;2.38;;;11.00;99.90;;;;;;5007439;28;20037;-76
2023/01/27 11:53:26;;;;;;;8.15;1.33;;;10.80;99.90;;;;;;5010215;28;20266;-75
2023/01/27 11:56:17;;;;;;;7.90;1.63;;;10.80;99.90;;;;;;5010136;28;20037;-74
2023/01/27 11:59:04;;;;;;;16.58;1.98;;;10.90;99.90;;;;;;4998754;28;20084;-75
2023/01/27 12:01:56;;;;;;;5.40;1.70;;;11.00;99.90;;;;;;5012246;28;20021;-76
2023/01/27 12:04:44;;;;;;;7.03;1.60;;;10.80;99.90;;;;;;5010026;28;20053;-75
2023/01/27 12:07:22;;;;;;;6.43;1.60;;;10.70;99.90;;;;;;5012330;28;20617;-76
2023/01/27 12:09:48;;;;;;;9.60;1.77;;;10.70;99.90;;;;;;5011662;28;20022;-73
2023/01/27 12:12:13;;;;;;;5.70;1.77;;;10.70;99.90;;;;;;5012117;28;20029;-76
2023/01/27 12:14:53;;;;;;;8.63;2.00;;;10.60;99.90;;;;;;5011327;28;20037;-75
2023/01/27 12:17:41;;;;;;;5.35;1.67;;;10.80;99.90;;;;;;5011530;28;20022;-76
2023/01/27 12:20:33;;;;;;;6.00;1.45;;;11.30;99.90;;;;;;5011287;28;20422;-75
2023/01/27 12:23:05;;;;;;;9.02;1.88;;;11.80;99.90;;;;;;5011260;28;20041;-75
2023/01/27 12:25:42;;;;;;;8.00;1.70;;;12.30;99.90;;;;;;5012310;28;20521;-75
2023/01/27 12:28:28;;;;;;;8.80;1.27;;;12.90;99.90;;;;;;5009899;28;20406;-75
2023/01/27 12:31:01;;;;;;;5.13;1.10;;;13.80;99.90;;;;;;4997486;28;20038;-75
2023/01/27 12:33:30;;;;;;;6.65;1.30;;;14.10;99.90;;;;;;5011599;28;20026;-74
2023/01/27 12:36:02;;;;;;;4.35;1.10;;;14.30;99.90;;;;;;5010283;28;20041;-73
2023/01/27 12:38:34;;;;;;;2.53;1.05;;;14.40;99.90;;;;;;5010680;28;20072;-75
2023/01/27 12:41:05;;;;;;;5.97;1.35;;;14.50;99.90;;;;;;5010892;28;20502;-75
2023/01/27 12:43:48;;;;;;;5.60;1.08;;;14.60;99.90;;;;;;5010013;28;20091;-74
2023/01/27 12:46:24;;;;;;;5.68;1.40;;;14.60;99.90;;;;;;5011346;28;20033;-75
2023/01/27 12:48:52;;;;;;;4.78;1.00;;;15.30;99.90;;;;;;5010932;28;20545;-76
2023/01/27 12:51:21;;;;;;;5.47;0.98;;;15.90;99.90;;;;;;5010540;28;20034;-75
2023/01/27 12:53:49;;;;;;;4.00;1.20;;;16.60;99.90;;;;;;5010251;28;20041;-75
2023/01/27 12:56:22;;;;;;;3.97;1.00;;;17.40;99.90;;;;;;5023478;28;20026;-74
2023/01/27 12:58:56;;;;;;;3.58;1.00;;;17.70;99.90;;;;;;5007592;28;20505;-75
2023/01/27 13:01:32;;;;;;;7.43;1.13;;;17.90;99.90;;;;;;5009666;28;20034;-76
2023/01/27 13:04:20;;;;;;;3.80;1.00;;;17.70;99.90;;;;;;5012123;28;20066;-74
2023/01/27 13:07:00;;;;;;;6.55;1.10;;;16.90;99.90;;;;;;5008522;28;20437;-76
2023/01/27 13:09:39;;;;;;;5.47;1.17;;;16.00;99.90;;;;;;5010950;28;20478;-75
2023/01/27 13:12:22;;;;;;;9.40;1.70;;;14.60;99.90;;;;;;5002710;28;20021;-75
2023/01/27 13:14:54;;;;;;;5.07;1.15;;;13.90;99.90;;;;;;5023337;28;20390;-75
2023/01/27 13:17:44;;;;;;;3.67;1.10;;;13.10;99.90;;;;;;5010196;28;20092;-76
2023/01/27 13:20:21;;;;;;;6.32;1.00;;;12.80;99.90;;;;;;5010174;28;20033;-76
2023/01/27 13:22:58;;;;;;;3.92;1.10;;;13.60;99.90;;;;;;4995515;28;20057;-77
2023/01/27 13:25:33;;;;;;;4.25;0.90;;;15.00;99.90;;;;;;5002400;28;20030;-77
2023/01/27 13:28:00;;;;;;;6.97;1.13;;;15.90;99.90;;;;;;5012409;28;20101;-74
2023/01/27 13:30:42;;;;;;;3.30;1.05;;;15.60;99.90;;;;;;4997387;28;20099;-75
2023/01/27 13:33:33;;;;;;;7.10;1.13;;;16.00;99.90;;;;;;5013900;28;20080;-74
2023/01/27 13:36:42;;;;;;;6.67;1.27;;;17.50;99.90;;;;;;5015002;28;20065;-74
2023/01/27 13:39:22;;;;;;;4.13;0.73;;;19.10;99.90;;;;;;4971027;28;20042;-74
2023/01/27 13:42:00;;;;;;;5.25;1.10;;;19.50;99.90;;;;;;4995144;28;20022;-74
2023/01/27 13:44:50;;;;;;;5.25;0.95;;;18.30;99.90;;;;;;4983406;28;20032;-73